createdAt,value
2023-05-01T00:02:42.565Z,11.52
2023-05-01T00:16:56.346Z,11.37
2023-05-01T00:31:05.946Z,11.23
2023-05-01T00:45:17.158Z,11.14
2023-05-01T00:59:28.002Z,11
2023-05-01T01:13:39.787Z,10.87
2023-05-01T01:27:53.614Z,10.71
2023-05-01T01:42:02.174Z,10.56
2023-05-01T01:56:13.690Z,10.41
2023-05-01T02:10:25.057Z,10.35
2023-05-01T02:24:36.302Z,10.32
2023-05-01T02:38:48.052Z,10.16
2023-05-01T02:52:58.167Z,9.75
2023-05-01T03:07:10.052Z,9.48
2023-05-01T03:21:21.908Z,9.54
2023-05-01T03:35:35.303Z,9.73
2023-05-01T04:03:57.400Z,9.79
2023-05-01T04:18:10.178Z,10.01
2023-05-01T04:32:22.267Z,10.17
2023-05-01T04:46:34.594Z,10.37
2023-05-01T05:00:47.588Z,10.56
2023-05-01T05:15:00.385Z,10.71
2023-05-01T05:29:13.294Z,10.92
2023-05-01T05:43:25.564Z,11.10
2023-05-01T05:46:35.494Z,11.21
2023-05-01T05:56:09.774Z,11.22
2023-05-01T05:57:36.753Z,11.37
2023-05-01T06:05:46.148Z,11.58
2023-05-01T06:15:19.620Z,11.78
2023-05-01T06:16:22.047Z,11.82
2023-05-01T06:17:24.411Z,11.87
2023-05-01T06:18:26.860Z,11.91
2023-05-01T06:19:30.920Z,11.93
2023-05-01T06:29:04.085Z,11.98
2023-05-01T06:30:08.057Z,12.00
2023-05-01T06:31:10.385Z,12.01
2023-05-01T06:32:12.942Z,12.06
2023-05-01T06:33:16.933Z,12.10
2023-05-01T06:44:55.674Z,12.11
2023-05-01T06:45:58.082Z,12.19
2023-05-01T06:47:03.132Z,12.24
2023-05-01T06:48:06.976Z,12.30
2023-05-01T06:49:10.884Z,12.34
2023-05-01T06:58:43.714Z,12.40
2023-05-01T06:59:47.644Z,12.43
2023-05-01T07:00:52.678Z,12.47
2023-05-01T07:01:57.559Z,12.53
2023-05-01T07:03:00.063Z,12.57
2023-05-01T07:04:02.202Z,12.60
2023-05-01T07:05:04.689Z,12.59
2023-05-01T07:06:08.619Z,12.61
2023-05-01T07:07:10.939Z,12.64
2023-05-01T07:08:16.001Z,12.68
2023-05-01T07:09:18.203Z,12.74
2023-05-01T07:10:22.260Z,12.80
2023-05-01T07:11:24.770Z,12.81
2023-05-01T07:12:28.822Z,12.86
2023-05-01T07:13:31.122Z,12.87
2023-05-01T07:14:33.535Z,12.92
2023-05-01T07:15:37.581Z,12.94
2023-05-01T07:16:41.564Z,12.97
2023-05-01T07:17:43.872Z,12.98
2023-05-01T07:18:46.300Z,13.04
2023-05-01T07:19:48.733Z,13.07
2023-05-01T07:20:51.196Z,13.12
2023-05-01T07:21:55.291Z,13.11
2023-05-01T07:24:00.003Z,13.13
2023-05-01T07:25:03.417Z,13.14
2023-05-01T07:26:07.370Z,13.12
2023-05-01T07:27:11.371Z,13.10
2023-05-01T07:28:13.594Z,13.09
2023-05-01T07:30:18.465Z,13.11
2023-05-01T07:31:20.921Z,13.14
2023-05-01T07:32:24.418Z,13.17
2023-05-01T07:33:26.726Z,13.24
2023-05-01T07:34:29.290Z,13.28
2023-05-01T07:35:31.712Z,13.34
2023-05-01T07:36:34.204Z,13.36
2023-05-01T07:37:38.261Z,13.31
2023-05-01T07:38:42.178Z,13.33
2023-05-01T07:39:44.564Z,13.38
2023-05-01T07:40:47.009Z,13.41
2023-05-01T07:41:49.488Z,13.43
2023-05-01T07:42:54.636Z,13.44
2023-05-01T07:43:57.557Z,13.46
2023-05-01T07:44:59.872Z,13.50
2023-05-01T07:46:04.077Z,13.53
2023-05-01T07:47:06.372Z,13.58
2023-05-01T07:48:08.773Z,13.60
2023-05-01T07:50:13.695Z,13.59
2023-05-01T07:51:16.209Z,13.61
2023-05-01T07:52:18.605Z,13.60
2023-05-01T07:53:22.677Z,13.62
2023-05-01T07:54:26.708Z,13.65
2023-05-01T07:55:30.680Z,13.67
2023-05-01T07:56:32.984Z,13.69
2023-05-01T07:57:35.423Z,13.76
2023-05-01T07:58:39.442Z,13.79
2023-05-01T07:59:44.419Z,13.82
2023-05-01T08:01:49.076Z,13.86
2023-05-01T08:02:51.675Z,13.90
2023-05-01T08:03:54.067Z,13.94
2023-05-01T08:04:56.541Z,13.96
2023-05-01T08:05:59.078Z,13.95
2023-05-01T08:07:01.345Z,13.96
2023-05-01T08:08:05.390Z,13.97
2023-05-01T08:09:10.343Z,13.95
2023-05-01T08:11:17.636Z,14.00
2023-05-01T08:12:20.143Z,14.01
2023-05-01T08:13:22.515Z,13.99
2023-05-01T08:14:26.526Z,14.02
2023-05-01T08:15:28.791Z,14.04
2023-05-01T08:16:31.398Z,14.00
2023-05-01T08:18:36.132Z,13.95
2023-05-01T08:20:43.537Z,13.97
2023-05-01T08:21:45.891Z,13.92
2023-05-01T08:22:49.936Z,13.99
2023-05-01T08:23:52.350Z,14.01
2023-05-01T08:24:56.402Z,14.04
2023-05-01T08:25:58.697Z,14.11
2023-05-01T08:27:01.164Z,14.16
2023-05-01T08:28:09.250Z,14.18
2023-05-01T08:29:12.394Z,14.23
2023-05-01T08:30:17.298Z,14.27
2023-05-01T08:31:20.568Z,14.32
2023-05-01T08:32:28.563Z,14.42
2023-05-01T08:33:33.217Z,14.52
2023-05-01T08:34:38.085Z,14.55
2023-05-01T08:35:40.175Z,14.60
2023-05-01T08:37:48.210Z,14.65
2023-05-01T08:38:52.062Z,14.72
2023-05-01T08:39:54.585Z,14.79
2023-05-01T08:40:56.924Z,14.84
2023-05-01T08:41:59.331Z,14.87
2023-05-01T08:43:01.868Z,14.84
2023-05-01T08:44:04.235Z,14.85
2023-05-01T08:45:06.647Z,14.88
2023-05-01T08:46:09.392Z,14.89
2023-05-01T08:47:12.089Z,14.93
2023-05-01T08:48:18.163Z,14.94
2023-05-01T08:49:20.369Z,14.99
2023-05-01T08:50:24.007Z,15.03
2023-05-01T08:51:27.640Z,15.07
2023-05-01T08:52:31.150Z,15.12
2023-05-01T08:53:33.773Z,15.17
2023-05-01T08:54:37.996Z,15.18
2023-05-01T08:55:40.584Z,15.20
2023-05-01T08:56:45.774Z,15.25
2023-05-01T08:57:51.964Z,15.30
2023-05-01T08:58:55.882Z,15.35
2023-05-01T08:59:58.533Z,15.44
2023-05-01T09:01:01.065Z,15.47
2023-05-01T09:02:03.680Z,15.42
2023-05-01T09:03:08.042Z,15.48
2023-05-01T09:04:12.254Z,15.52
2023-05-01T09:05:14.680Z,15.56
2023-05-01T09:06:18.667Z,15.62
2023-05-01T09:07:22.695Z,15.60
2023-05-01T09:08:26.280Z,15.64
2023-05-01T09:09:31.352Z,15.71
2023-05-01T09:10:33.825Z,15.70
2023-05-01T09:11:39.144Z,15.73
2023-05-01T09:12:41.647Z,15.79
2023-05-01T09:13:45.808Z,15.81
2023-05-01T09:14:48.186Z,15.85
2023-05-01T09:15:50.775Z,15.88
2023-05-01T09:16:53.328Z,15.90
2023-05-01T09:17:55.928Z,15.91
2023-05-01T09:18:59.558Z,15.93
2023-05-01T09:20:03.613Z,15.95
2023-05-01T09:22:11.433Z,16.01
2023-05-01T09:23:14.812Z,16.04
2023-05-01T09:24:18.671Z,16.06
2023-05-01T09:25:21.087Z,16.12
2023-05-01T09:26:25.182Z,16.15
2023-05-01T09:27:29.327Z,16.13
2023-05-01T09:28:33.470Z,16.15
2023-05-01T09:29:37.573Z,16.18
2023-05-01T09:30:41.645Z,16.15
2023-05-01T09:31:44.127Z,16.17
2023-05-01T09:32:48.346Z,16.20
2023-05-01T09:33:52.240Z,16.21
2023-05-01T09:34:56.321Z,16.24
2023-05-01T09:35:58.822Z,16.27
2023-05-01T09:37:01.551Z,16.28
2023-05-01T09:38:04.281Z,16.25
2023-05-01T09:40:12.827Z,16.27
2023-05-01T09:42:21.024Z,16.31
2023-05-01T09:43:23.418Z,16.34
2023-05-01T09:44:25.935Z,16.36
2023-05-01T09:45:30.215Z,16.42
2023-05-01T09:46:34.368Z,16.45
2023-05-01T09:47:38.505Z,16.50
2023-05-01T09:48:44.527Z,16.54
2023-05-01T09:49:47.081Z,16.60
2023-05-01T09:50:49.553Z,16.66
2023-05-01T09:51:53.588Z,16.71
2023-05-01T09:53:58.774Z,16.74
2023-05-01T09:57:11.421Z,16.73
2023-05-01T09:58:13.959Z,16.75
2023-05-01T09:59:16.717Z,16.78
2023-05-01T10:00:20.898Z,16.81
2023-05-01T10:01:23.326Z,16.85
2023-05-01T10:02:25.825Z,16.89
2023-05-01T10:03:29.961Z,16.91
2023-05-01T10:04:32.449Z,16.95
2023-05-01T10:05:36.782Z,16.99
2023-05-01T10:06:39.567Z,17.02
2023-05-01T10:07:43.870Z,17.03
2023-05-01T10:08:47.864Z,17.08
2023-05-01T10:09:50.189Z,17.14
2023-05-01T10:10:54.272Z,17.19
2023-05-01T10:11:58.323Z,17.24
2023-05-01T10:13:00.781Z,17.32
2023-05-01T10:14:03.527Z,17.37
2023-05-01T10:15:17.602Z,17.39
2023-05-01T10:16:12.202Z,17.44
2023-05-01T10:17:16.402Z,17.48
2023-05-01T10:19:21.592Z,17.54
2023-05-01T10:20:24.366Z,17.58
2023-05-01T10:21:27.000Z,17.54
2023-05-01T10:22:29.724Z,17.59
2023-05-01T10:23:32.347Z,17.65
2023-05-01T10:24:36.680Z,17.69
2023-05-01T10:25:39.257Z,17.73
2023-05-01T10:26:41.882Z,17.77
2023-05-01T10:27:46.175Z,17.80
2023-05-01T10:28:50.326Z,17.89
2023-05-01T10:29:54.726Z,17.97
2023-05-01T10:30:57.126Z,18.06
2023-05-01T10:32:01.358Z,18.12
2023-05-01T10:33:05.497Z,18.18
2023-05-01T10:34:09.555Z,18.24
2023-05-01T10:35:12.119Z,18.33
2023-05-01T10:36:14.946Z,18.32
2023-05-01T10:37:19.244Z,18.35
2023-05-01T10:38:23.541Z,18.42
2023-05-01T10:39:26.150Z,18.50
2023-05-01T10:40:28.804Z,18.54
2023-05-01T10:41:31.514Z,18.58
2023-05-01T10:42:35.977Z,18.62
2023-05-01T10:43:38.592Z,18.65
2023-05-01T10:44:41.215Z,18.56
2023-05-01T10:45:45.472Z,18.55
2023-05-01T10:46:48.078Z,18.53
2023-05-01T10:47:50.857Z,18.57
2023-05-01T10:48:54.403Z,18.62
2023-05-01T10:49:57.072Z,18.66
2023-05-01T10:51:01.414Z,18.61
2023-05-01T10:52:05.574Z,18.65
2023-05-01T10:53:08.251Z,18.59
2023-05-01T10:54:10.948Z,18.62
2023-05-01T10:55:15.222Z,18.63
2023-05-01T10:56:19.555Z,18.61
2023-05-01T10:57:22.025Z,18.65
2023-05-01T10:58:24.743Z,18.72
2023-05-01T10:59:27.458Z,18.73
2023-05-01T11:00:30.226Z,18.74
2023-05-01T11:01:33.093Z,18.73
2023-05-01T11:03:39.894Z,18.71
2023-05-01T11:04:42.391Z,18.72
2023-05-01T11:05:45.118Z,18.78
2023-05-01T11:06:49.544Z,18.85
2023-05-01T11:07:53.825Z,18.87
2023-05-01T11:08:58.033Z,18.92
2023-05-01T11:10:00.709Z,18.96
2023-05-01T11:11:05.076Z,19.01
2023-05-01T11:12:07.615Z,19.06
2023-05-01T11:13:10.305Z,19.10
2023-05-01T11:14:14.768Z,19.14
2023-05-01T11:15:18.964Z,19.15
2023-05-01T11:16:23.066Z,19.14
2023-05-01T11:17:25.730Z,19.21
2023-05-01T11:19:31.141Z,19.25
2023-05-01T11:20:35.383Z,19.32
2023-05-01T11:21:37.989Z,19.31
2023-05-01T11:22:40.670Z,19.30
2023-05-01T11:23:43.315Z,19.27
2023-05-01T11:24:45.936Z,19.28
2023-05-01T11:25:48.648Z,19.25
2023-05-01T11:26:53.078Z,19.27
2023-05-01T11:27:57.397Z,19.24
2023-05-01T11:29:01.638Z,19.21
2023-05-01T11:31:07.069Z,19.23
2023-05-01T11:32:09.916Z,19.26
2023-05-01T11:34:16.807Z,19.27
2023-05-01T11:35:19.427Z,19.31
2023-05-01T11:36:23.733Z,19.37
2023-05-01T11:37:28.082Z,19.44
2023-05-01T11:38:32.267Z,19.36
2023-05-01T11:39:34.767Z,19.41
2023-05-01T11:40:39.004Z,19.46
2023-05-01T11:41:41.514Z,19.54
2023-05-01T11:42:44.346Z,19.52
2023-05-01T11:43:46.931Z,19.51
2023-05-01T11:45:54.036Z,19.53
2023-05-01T11:46:56.506Z,19.54
2023-05-01T11:48:03.584Z,19.57
2023-05-01T11:49:03.452Z,19.59
2023-05-01T11:50:06.153Z,19.60
2023-05-01T11:51:08.835Z,19.65
2023-05-01T11:52:11.518Z,19.67
2023-05-01T11:53:16.039Z,19.72
2023-05-01T11:54:18.356Z,19.73
2023-05-01T11:55:22.628Z,19.72
2023-05-01T11:56:26.844Z,19.74
2023-05-01T11:57:28.013Z,19.77
2023-05-01T11:58:32.256Z,19.81
2023-05-01T11:59:34.825Z,19.83
2023-05-01T12:01:43.366Z,19.81
2023-05-01T12:02:45.972Z,19.83
2023-05-01T12:03:48.649Z,19.85
2023-05-01T12:05:55.446Z,19.88
2023-05-01T12:06:58.023Z,19.92
2023-05-01T12:08:00.711Z,19.91
2023-05-01T12:10:06.318Z,19.95
2023-05-01T12:11:10.573Z,19.99
2023-05-01T12:12:13.124Z,20.08
2023-05-01T12:13:17.419Z,20.18
2023-05-01T12:14:21.758Z,20.24
2023-05-01T12:15:25.874Z,20.27
2023-05-01T12:16:28.656Z,20.33
2023-05-01T12:17:31.287Z,20.39
2023-05-01T12:18:35.559Z,20.44
2023-05-01T12:19:38.161Z,20.52
2023-05-01T12:20:40.900Z,20.64
2023-05-01T12:21:43.689Z,20.70
2023-05-01T12:22:46.341Z,20.75
2023-05-01T12:23:49.084Z,20.88
2023-05-01T12:24:52.860Z,20.94
2023-05-01T12:25:55.427Z,21.01
2023-05-01T12:26:58.068Z,21.03
2023-05-01T12:28:00.659Z,21.05
2023-05-01T12:29:05.028Z,21.04
2023-05-01T12:30:09.260Z,21.09
2023-05-01T12:31:13.491Z,21.12
2023-05-01T12:32:15.988Z,21.17
2023-05-01T12:33:20.342Z,21.21
2023-05-01T12:34:22.865Z,21.10
2023-05-01T12:35:27.266Z,21.12
2023-05-01T12:36:31.420Z,21.10
2023-05-01T12:37:33.973Z,21.15
2023-05-01T12:38:36.626Z,21.08
2023-05-01T12:39:39.408Z,21.12
2023-05-01T12:40:43.525Z,21.16
2023-05-01T12:41:46.112Z,21.25
2023-05-01T12:42:48.751Z,21.30
2023-05-01T12:43:51.355Z,21.37
2023-05-01T12:44:53.995Z,21.42
2023-05-01T12:45:56.730Z,21.43
2023-05-01T12:46:59.334Z,21.34
2023-05-01T12:48:03.469Z,21.33
2023-05-01T12:49:06.035Z,21.42
2023-05-01T12:50:08.503Z,21.51
2023-05-01T12:51:11.360Z,21.66
2023-05-01T12:52:13.933Z,21.84
2023-05-01T12:53:16.601Z,21.98
2023-05-01T12:55:23.727Z,21.94
2023-05-01T12:56:26.273Z,22.04
2023-05-01T12:57:29.129Z,22.13
2023-05-01T12:58:31.852Z,22.19
2023-05-01T13:08:05.942Z,22.91
2023-05-01T13:09:10.204Z,23.01
2023-05-01T13:10:12.919Z,23.00
2023-05-01T13:11:17.163Z,22.96
2023-05-01T13:12:19.664Z,22.88
2023-05-01T13:13:22.289Z,22.76
2023-05-01T13:14:24.958Z,22.62
2023-05-01T13:15:27.566Z,22.47
2023-05-01T13:16:30.226Z,22.33
2023-05-01T13:17:33.102Z,22.24
2023-05-01T13:18:35.405Z,22.15
2023-05-01T13:19:38.149Z,22.04
2023-05-01T13:20:42.428Z,21.83
2023-05-01T13:21:44.959Z,21.75
2023-05-01T13:22:47.596Z,21.65
2023-05-01T13:23:52.028Z,21.60
2023-05-01T13:24:54.615Z,21.50
2023-05-01T13:25:58.850Z,21.48
2023-05-01T13:27:02.868Z,21.56
2023-05-01T13:28:04.003Z,21.54
2023-05-01T13:29:08.454Z,21.52
2023-05-01T13:30:11.104Z,21.47
2023-05-01T13:31:13.684Z,21.35
2023-05-01T13:32:21.288Z,21.33
2023-05-01T13:33:23.728Z,21.31
2023-05-01T13:34:26.415Z,21.29
2023-05-01T13:35:30.667Z,21.42
2023-05-01T13:37:36.109Z,21.44
2023-05-01T13:38:40.607Z,21.57
2023-05-01T13:39:43.221Z,21.66
2023-05-01T13:40:47.681Z,21.68
2023-05-01T13:41:50.294Z,21.63
2023-05-01T13:42:53.097Z,21.59
2023-05-01T13:43:57.415Z,21.45
2023-05-01T13:45:01.417Z,21.39
2023-05-01T13:46:03.989Z,21.34
2023-05-01T13:47:08.310Z,21.25
2023-05-01T13:48:10.929Z,21.20
2023-05-01T13:49:13.617Z,21.15
2023-05-01T13:50:17.910Z,21.12
2023-05-01T13:51:20.545Z,21.13
2023-05-01T13:52:23.245Z,21.06
2023-05-01T13:53:27.540Z,20.96
2023-05-01T13:54:30.067Z,20.93
2023-05-01T13:55:32.900Z,20.82
2023-05-01T13:56:35.467Z,20.78
2023-05-01T13:57:39.740Z,20.70
2023-05-01T13:58:42.307Z,20.66
2023-05-01T13:59:44.929Z,20.68
2023-05-01T14:00:47.630Z,20.64
2023-05-01T14:01:50.292Z,20.57
2023-05-01T14:02:53.058Z,20.52
2023-05-01T14:03:57.271Z,20.48
2023-05-01T14:05:00.852Z,20.70
2023-05-01T14:06:02.479Z,20.75
2023-05-01T14:07:06.765Z,20.70
2023-05-01T14:08:10.857Z,20.65
2023-05-01T14:09:13.368Z,20.58
2023-05-01T14:10:16.083Z,20.50
2023-05-01T14:11:20.388Z,20.44
2023-05-01T14:12:23.141Z,20.42
2023-05-01T14:13:25.834Z,20.39
2023-05-01T14:14:30.226Z,20.40
2023-05-01T14:15:34.465Z,20.44
2023-05-01T14:16:38.784Z,20.41
2023-05-01T14:17:41.297Z,20.39
2023-05-01T14:18:45.567Z,20.35
2023-05-01T14:19:48.241Z,20.34
2023-05-01T14:20:51.028Z,20.57
2023-05-01T14:21:54.042Z,20.78
2023-05-01T14:22:56.715Z,21.00
2023-05-01T14:24:01.015Z,21.23
2023-05-01T14:25:03.780Z,21.39
2023-05-01T14:26:06.424Z,21.56
2023-05-01T14:30:08.558Z,21.19
2023-05-01T14:44:23.601Z,20.96
2023-05-01T14:58:33.202Z,20.89
2023-05-01T15:12:48.037Z,21.22
2023-05-01T15:27:01.445Z,21.15
2023-05-01T15:41:13.923Z,20.79
2023-05-01T15:55:26.224Z,20.44
2023-05-01T16:09:40.148Z,20.9
2023-05-01T16:23:54.298Z,21.13
2023-05-01T16:38:06.270Z,20.55
2023-05-01T16:48:56.228Z,20.50
2023-05-01T16:49:58.807Z,20.42
2023-05-01T16:51:01.075Z,20.33
2023-05-01T16:52:05.075Z,20.24
2023-05-01T16:52:20.011Z,19.87
2023-05-01T17:00:27.793Z,19.86
2023-05-01T17:01:30.202Z,19.84
2023-05-01T17:02:32.657Z,19.87
2023-05-01T17:06:28.277Z,19.64
2023-05-01T17:15:10.710Z,19.62
2023-05-01T17:16:13.461Z,19.57
2023-05-01T17:17:15.825Z,19.55
2023-05-01T17:18:18.372Z,19.50
2023-05-01T17:19:21.960Z,19.46
2023-05-01T17:20:24.239Z,19.42
2023-05-01T17:20:40.808Z,19.17
2023-05-01T17:27:51.508Z,19.17
2023-05-01T17:29:56.416Z,19.14
2023-05-01T17:31:00.401Z,19.12
2023-05-01T17:32:03.880Z,19.09
2023-05-01T17:33:06.520Z,19.04
2023-05-01T17:34:10.549Z,19.01
2023-05-01T17:34:53.608Z,18.74
2023-05-01T17:43:38.251Z,18.71
2023-05-01T17:44:42.197Z,18.67
2023-05-01T17:45:44.575Z,18.63
2023-05-01T17:46:48.581Z,18.62
2023-05-01T17:47:50.869Z,18.58
2023-05-01T17:48:53.523Z,18.54
2023-05-01T17:49:08.186Z,18.38
2023-05-01T17:58:24.896Z,17.96
2023-05-01T17:59:27.422Z,17.94
2023-05-01T18:02:35.190Z,17.95
2023-05-01T18:03:16.634Z,17.92
2023-05-01T18:10:57.374Z,17.91
2023-05-01T18:12:01.419Z,17.89
2023-05-01T18:13:03.717Z,17.87
2023-05-01T18:14:06.161Z,17.85
2023-05-01T18:15:10.241Z,17.83
2023-05-01T18:16:13.640Z,17.81
2023-05-01T18:17:18.591Z,17.82
2023-05-01T18:17:29.389Z,17.54
2023-05-01T18:25:43.188Z,17.53
2023-05-01T18:26:47.224Z,17.44
2023-05-01T18:27:53.347Z,17.39
2023-05-01T18:28:56.388Z,17.35
2023-05-01T18:30:00.015Z,17.28
2023-05-01T18:31:03.839Z,17.23
2023-05-01T18:31:40.812Z,16.97
2023-05-01T18:43:43.690Z,16.25
2023-05-01T18:45:53.308Z,16.13
2023-05-01T18:54:19.909Z,15.57
2023-05-01T19:00:02.097Z,15.27
2023-05-01T19:03:51.424Z,14.89
2023-05-01T19:04:57.684Z,14.81
2023-05-01T19:14:11.329Z,14.21
2023-05-01T19:14:25.349Z,14.09
2023-05-01T19:24:00.230Z,13.72
2023-05-01T19:28:22.796Z,13.66
2023-05-01T19:33:31.755Z,13.48
2023-05-01T19:42:34.092Z,13.33
2023-05-01T19:53:41.047Z,13.20
2023-05-01T19:56:45.998Z,13.01
2023-05-01T20:10:58.367Z,12.73
2023-05-01T20:25:10.680Z,12.43
2023-05-01T20:39:22.276Z,12.37
2023-05-01T20:53:34.397Z,12.39
2023-05-01T21:07:47.604Z,12.47
2023-05-01T21:21:59.610Z,12.45
2023-05-01T21:36:12.317Z,12.36
2023-05-01T21:50:24.793Z,12.26
2023-05-01T22:04:36.534Z,12.2
2023-05-01T22:18:54.125Z,12.18
2023-05-01T22:32:52.986Z,12.05
2023-05-01T22:47:02.755Z,11.79
2023-05-01T23:01:08.785Z,11.53
2023-05-01T23:15:13.331Z,10.97
2023-05-01T23:29:21.082Z,10.28
2023-05-01T23:43:28.539Z,9.77
2023-05-01T23:57:30.510Z,9.41
